createdAt,value
2016-12-24T00:00:09.521Z,15.70
2016-12-24T00:01:12.795Z,15.70
2016-12-24T00:02:12.376Z,15.70
2016-12-24T00:03:09.242Z,15.70
2016-12-24T00:04:12.276Z,15.70
2016-12-24T00:05:11.658Z,15.70
2016-12-24T00:06:12.330Z,15.70
2016-12-24T00:07:11.637Z,15.70
2016-12-24T00:08:12.549Z,15.70
2016-12-24T00:09:12.406Z,15.70
2016-12-24T00:10:11.701Z,15.70
2016-12-24T00:11:13.008Z,15.70
2016-12-24T00:12:12.330Z,15.70
2016-12-24T00:13:12.396Z,15.70
2016-12-24T00:14:12.816Z,15.70
2016-12-24T00:15:12.519Z,15.70
2016-12-24T00:16:12.608Z,15.70
2016-12-24T00:17:12.151Z,15.70
2016-12-24T00:18:09.336Z,15.70
2016-12-24T00:19:12.135Z,15.70
2016-12-24T00:20:12.266Z,15.70
2016-12-24T00:21:12.161Z,15.70
2016-12-24T00:22:11.616Z,15.70
2016-12-24T00:23:09.875Z,15.70
2016-12-24T00:24:13.285Z,15.70
2016-12-24T00:25:12.183Z,15.70
2016-12-24T00:26:12.076Z,15.70
2016-12-24T00:27:11.422Z,15.70
2016-12-24T00:28:12.730Z,15.70
2016-12-24T00:29:10.788Z,15.70
2016-12-24T00:30:12.523Z,15.70
2016-12-24T00:31:10.218Z,15.70
2016-12-24T00:32:11.755Z,15.70
2016-12-24T00:33:12.660Z,15.70
2016-12-24T00:34:12.393Z,15.70
2016-12-24T00:35:09.341Z,15.70
2016-12-24T00:36:12.101Z,15.70
2016-12-24T00:37:11.820Z,15.70
2016-12-24T00:38:14.129Z,15.70
2016-12-24T00:39:12.740Z,15.70
2016-12-24T00:40:12.668Z,15.70
2016-12-24T00:41:13.215Z,15.70
2016-12-24T00:42:10.298Z,15.70
2016-12-24T00:43:13.689Z,15.70
2016-12-24T00:44:12.817Z,15.70
2016-12-24T00:45:09.999Z,15.70
2016-12-24T00:46:11.978Z,15.70
2016-12-24T00:47:12.233Z,15.70
2016-12-24T00:48:12.276Z,15.70
2016-12-24T00:49:12.654Z,15.70
2016-12-24T00:50:12.900Z,15.70
2016-12-24T00:51:12.747Z,15.70
2016-12-24T00:52:12.508Z,15.70
2016-12-24T00:53:12.509Z,15.70
2016-12-24T00:54:12.502Z,15.70
2016-12-24T00:55:09.184Z,15.70
2016-12-24T00:56:12.786Z,15.70
2016-12-24T00:57:12.059Z,15.70
2016-12-24T00:58:13.944Z,15.70
2016-12-24T00:59:10.667Z,15.70
2016-12-24T01:00:11.188Z,15.70
2016-12-24T01:01:10.367Z,15.70
2016-12-24T01:02:12.604Z,15.70
2016-12-24T01:03:13.760Z,15.70
2016-12-24T01:04:14.338Z,15.70
2016-12-24T01:05:13.425Z,15.70
2016-12-24T01:06:12.673Z,15.70
2016-12-24T01:07:13.060Z,15.70
2016-12-24T01:08:12.157Z,15.70
2016-12-24T01:09:13.643Z,15.70
2016-12-24T01:10:14.280Z,15.70
2016-12-24T01:11:12.894Z,15.70
2016-12-24T01:12:12.203Z,15.70
2016-12-24T01:13:13.417Z,15.70
2016-12-24T01:14:14.450Z,15.70
2016-12-24T01:15:12.855Z,15.70
2016-12-24T01:16:10.127Z,15.70
2016-12-24T01:17:12.964Z,15.70
2016-12-24T01:18:12.617Z,15.70
2016-12-24T01:19:12.378Z,15.70
2016-12-24T01:20:12.891Z,15.70
2016-12-24T01:21:12.789Z,15.70
2016-12-24T01:22:13.249Z,15.70
2016-12-24T01:23:12.192Z,15.70
2016-12-24T01:24:13.556Z,15.70
2016-12-24T01:25:11.946Z,15.60
2016-12-24T01:26:14.284Z,15.60
2016-12-24T01:27:12.422Z,15.70
2016-12-24T01:28:12.293Z,15.60
2016-12-24T01:29:12.587Z,15.60
2016-12-24T01:30:13.524Z,15.70
2016-12-24T01:31:10.479Z,15.70
2016-12-24T01:32:12.198Z,15.60
2016-12-24T01:33:11.810Z,15.70
2016-12-24T01:34:12.698Z,15.70
2016-12-24T01:35:11.966Z,15.70
2016-12-24T01:36:13.458Z,15.70
2016-12-24T01:37:12.887Z,15.70
2016-12-24T01:38:13.571Z,15.70
2016-12-24T01:39:12.770Z,15.70
2016-12-24T01:40:13.664Z,15.70
2016-12-24T01:41:12.487Z,15.70
2016-12-24T01:42:11.752Z,15.70
2016-12-24T01:43:12.259Z,15.70
2016-12-24T01:44:13.322Z,15.70
2016-12-24T01:45:11.940Z,15.70
2016-12-24T01:46:13.994Z,15.70
2016-12-24T01:47:12.357Z,15.70
2016-12-24T01:48:13.379Z,15.70
2016-12-24T01:49:12.506Z,15.70
2016-12-24T01:50:13.498Z,15.70
2016-12-24T01:51:13.209Z,15.70
2016-12-24T01:52:12.371Z,15.70
2016-12-24T01:53:11.866Z,15.70
2016-12-24T01:54:13.727Z,15.60
2016-12-24T01:55:12.947Z,15.60
2016-12-24T01:56:12.567Z,15.70
2016-12-24T01:57:12.837Z,15.70
2016-12-24T01:58:12.586Z,15.70
2016-12-24T01:59:12.779Z,15.60
2016-12-24T02:00:11.994Z,15.60
2016-12-24T02:01:13.065Z,15.60
2016-12-24T02:02:11.417Z,15.60
2016-12-24T02:03:13.635Z,15.70
2016-12-24T02:04:14.721Z,15.70
2016-12-24T02:05:12.921Z,15.60
2016-12-24T02:06:12.124Z,15.60
2016-12-24T02:07:13.014Z,15.60
2016-12-24T02:08:12.433Z,15.70
2016-12-24T02:09:13.309Z,15.60
2016-12-24T02:10:14.741Z,15.60
2016-12-24T02:11:13.375Z,15.60
2016-12-24T02:12:12.462Z,15.60
2016-12-24T02:13:12.513Z,15.60
2016-12-24T02:14:12.794Z,15.60
2016-12-24T02:15:13.615Z,15.60
2016-12-24T02:16:11.945Z,15.60
2016-12-24T02:17:12.434Z,15.70
2016-12-24T02:18:11.827Z,15.60
2016-12-24T02:19:12.672Z,15.70
2016-12-24T02:20:13.258Z,15.70
2016-12-24T02:21:12.320Z,15.60
2016-12-24T02:22:12.685Z,15.70
2016-12-24T02:23:12.120Z,15.60
2016-12-24T02:24:11.905Z,15.60
2016-12-24T02:25:13.115Z,15.70
2016-12-24T02:26:10.494Z,15.70
2016-12-24T02:27:13.843Z,15.70
2016-12-24T02:28:15.756Z,15.60
2016-12-24T02:29:11.410Z,15.70
2016-12-24T02:30:13.248Z,15.60
2016-12-24T02:31:10.123Z,15.70
2016-12-24T02:32:12.706Z,15.60
2016-12-24T02:33:12.635Z,15.60
2016-12-24T02:34:12.624Z,15.60
2016-12-24T02:35:12.100Z,15.60
2016-12-24T02:36:11.436Z,15.60
2016-12-24T02:37:14.543Z,15.70
2016-12-24T02:38:12.296Z,15.60
2016-12-24T02:39:13.820Z,15.60
2016-12-24T02:40:14.917Z,15.60
2016-12-24T02:41:12.788Z,15.60
2016-12-24T02:42:13.601Z,15.70
2016-12-24T02:43:14.257Z,15.70
2016-12-24T02:44:12.643Z,15.60
2016-12-24T02:45:12.916Z,15.60
2016-12-24T02:46:09.267Z,15.60
2016-12-24T02:47:13.485Z,15.60
2016-12-24T02:48:11.793Z,15.60
2016-12-24T02:49:13.504Z,15.60
2016-12-24T02:50:13.903Z,15.60
2016-12-24T02:51:12.343Z,15.60
2016-12-24T02:52:12.369Z,15.60
2016-12-24T02:53:12.534Z,15.60
2016-12-24T02:54:13.324Z,15.60
2016-12-24T02:55:14.004Z,15.60
2016-12-24T02:56:12.728Z,15.60
2016-12-24T02:57:12.966Z,15.60
2016-12-24T02:58:12.598Z,15.60
2016-12-24T02:59:12.570Z,15.60
2016-12-24T03:00:14.104Z,15.60
2016-12-24T03:01:14.237Z,15.60
2016-12-24T03:02:12.797Z,15.60
2016-12-24T03:03:14.465Z,15.60
2016-12-24T03:04:12.381Z,15.60
2016-12-24T03:05:12.521Z,15.60
2016-12-24T03:06:10.446Z,15.60
2016-12-24T03:07:11.935Z,15.60
2016-12-24T03:08:12.754Z,15.60
2016-12-24T03:09:12.835Z,15.60
2016-12-24T03:10:12.474Z,15.60
2016-12-24T03:11:13.301Z,15.70
2016-12-24T03:12:12.974Z,15.60
2016-12-24T03:13:09.767Z,15.60
2016-12-24T03:14:12.949Z,15.60
2016-12-24T03:15:16.091Z,15.60
2016-12-24T03:16:13.205Z,15.60
2016-12-24T03:17:12.360Z,15.60
2016-12-24T03:18:12.199Z,15.60
2016-12-24T03:19:12.252Z,15.60
2016-12-24T03:20:12.703Z,15.50
2016-12-24T03:21:13.767Z,15.60
2016-12-24T03:22:12.298Z,15.60
2016-12-24T03:23:13.414Z,15.60
2016-12-24T03:24:13.863Z,15.60
2016-12-24T03:25:12.247Z,15.60
2016-12-24T03:26:12.542Z,15.60
2016-12-24T03:27:13.665Z,15.60
2016-12-24T03:28:11.929Z,15.60
2016-12-24T03:29:12.875Z,15.60
2016-12-24T03:30:12.434Z,15.60
2016-12-24T03:31:11.904Z,15.60
2016-12-24T03:32:12.767Z,15.60
2016-12-24T03:33:10.534Z,15.60
2016-12-24T03:34:12.713Z,15.60
2016-12-24T03:35:12.695Z,15.60
2016-12-24T03:36:13.516Z,15.60
2016-12-24T03:37:12.766Z,15.60
2016-12-24T03:38:09.216Z,15.70
2016-12-24T03:39:11.888Z,15.60
2016-12-24T03:40:10.694Z,15.70
2016-12-24T03:41:12.195Z,15.70
2016-12-24T03:42:08.975Z,15.60
2016-12-24T03:43:12.465Z,15.70
2016-12-24T03:44:12.427Z,15.70
2016-12-24T03:45:11.904Z,15.60
2016-12-24T03:46:12.391Z,15.60
2016-12-24T03:47:12.165Z,15.60
2016-12-24T03:48:14.296Z,15.60
2016-12-24T03:49:10.319Z,15.60
2016-12-24T03:50:11.825Z,15.70
2016-12-24T03:51:12.445Z,15.70
2016-12-24T03:52:14.655Z,15.70
2016-12-24T03:53:12.375Z,15.70
2016-12-24T03:54:11.847Z,15.70
2016-12-24T03:55:10.672Z,15.70
2016-12-24T03:56:13.133Z,15.70
2016-12-24T03:57:11.717Z,15.70
2016-12-24T03:58:12.467Z,15.60
2016-12-24T03:59:11.751Z,15.70
2016-12-24T04:00:12.251Z,15.70
2016-12-24T04:01:11.628Z,15.70
2016-12-24T04:02:12.063Z,15.70
2016-12-24T04:03:11.656Z,15.70
2016-12-24T04:04:12.121Z,15.70
2016-12-24T04:05:12.253Z,15.70
2016-12-24T04:06:11.728Z,15.70
2016-12-24T04:07:12.364Z,15.70
2016-12-24T04:08:12.533Z,15.60
2016-12-24T04:09:12.904Z,15.70
2016-12-24T04:10:13.755Z,15.70
2016-12-24T04:11:13.543Z,15.60
2016-12-24T04:12:12.193Z,15.60
2016-12-24T04:13:12.802Z,15.60
2016-12-24T04:14:12.165Z,15.60
2016-12-24T04:15:13.040Z,15.60
2016-12-24T04:16:12.559Z,15.60
2016-12-24T04:17:10.584Z,15.60
2016-12-24T04:18:12.607Z,15.60
2016-12-24T04:19:12.316Z,15.60
2016-12-24T04:20:09.008Z,15.70
2016-12-24T04:21:11.611Z,15.70
2016-12-24T04:22:12.575Z,15.70
2016-12-24T04:23:12.347Z,15.70
2016-12-24T04:24:11.722Z,15.60
2016-12-24T04:25:13.280Z,15.70
2016-12-24T04:26:14.587Z,15.70
2016-12-24T04:27:12.575Z,15.70
2016-12-24T04:28:12.413Z,15.70
2016-12-24T04:29:13.406Z,15.70
2016-12-24T04:30:12.145Z,15.70
2016-12-24T04:31:12.164Z,15.70
2016-12-24T04:32:12.539Z,15.70
2016-12-24T04:33:14.985Z,15.70
2016-12-24T04:34:12.823Z,15.70
2016-12-24T04:35:12.818Z,15.60
2016-12-24T04:36:12.228Z,15.60
2016-12-24T04:37:14.109Z,15.70
2016-12-24T04:38:12.705Z,15.70
2016-12-24T04:39:13.026Z,15.70
2016-12-24T04:40:12.524Z,15.70
2016-12-24T04:41:12.685Z,15.60
2016-12-24T04:42:12.747Z,15.60
2016-12-24T04:43:12.393Z,15.60
2016-12-24T04:44:12.197Z,15.60
2016-12-24T04:45:11.874Z,15.60
2016-12-24T04:46:14.608Z,15.60
2016-12-24T04:47:12.359Z,15.60
2016-12-24T04:48:12.169Z,15.60
2016-12-24T04:49:12.746Z,15.60
2016-12-24T04:50:12.595Z,15.60
2016-12-24T04:51:11.779Z,15.60
2016-12-24T04:52:14.076Z,15.70
2016-12-24T04:53:11.959Z,15.70
2016-12-24T04:54:12.868Z,15.70
2016-12-24T04:55:12.522Z,15.70
2016-12-24T04:56:13.154Z,15.70
2016-12-24T04:57:11.697Z,15.60
2016-12-24T04:58:12.447Z,15.70
2016-12-24T04:59:12.874Z,15.70
2016-12-24T05:00:12.215Z,15.70
2016-12-24T05:01:12.888Z,15.70
2016-12-24T05:02:12.819Z,15.70
2016-12-24T05:03:13.089Z,15.70
2016-12-24T05:04:11.492Z,15.60
2016-12-24T05:05:12.449Z,15.70
2016-12-24T05:06:11.814Z,15.60
2016-12-24T05:07:12.801Z,15.70
2016-12-24T05:08:12.888Z,15.70
2016-12-24T05:09:12.715Z,15.60
2016-12-24T05:10:13.114Z,15.60
2016-12-24T05:11:12.005Z,15.60
2016-12-24T05:12:12.086Z,15.60
2016-12-24T05:13:12.189Z,15.70
2016-12-24T05:14:12.440Z,15.70
2016-12-24T05:15:11.842Z,15.70
2016-12-24T05:16:12.342Z,15.60
2016-12-24T05:17:14.000Z,15.60
2016-12-24T05:18:12.240Z,15.60
2016-12-24T05:19:11.726Z,15.60
2016-12-24T05:20:12.557Z,15.60
2016-12-24T05:21:12.668Z,15.60
2016-12-24T05:22:12.322Z,15.70
2016-12-24T05:23:12.403Z,15.60
2016-12-24T05:24:13.357Z,15.60
2016-12-24T05:25:16.494Z,15.70
2016-12-24T05:26:15.319Z,15.60
2016-12-24T05:27:15.621Z,15.60
2016-12-24T05:28:12.157Z,15.60
2016-12-24T05:29:12.554Z,15.60
2016-12-24T05:30:11.986Z,15.60
2016-12-24T05:31:12.349Z,15.60
2016-12-24T05:32:13.250Z,15.60
2016-12-24T05:33:12.247Z,15.60
2016-12-24T05:34:11.696Z,15.60
2016-12-24T05:35:12.157Z,15.60
2016-12-24T05:36:13.401Z,15.60
2016-12-24T05:37:12.247Z,15.60
2016-12-24T05:38:12.726Z,15.60
2016-12-24T05:39:09.337Z,15.60
2016-12-24T05:40:09.129Z,15.60
2016-12-24T05:41:12.651Z,15.60
2016-12-24T05:42:09.698Z,15.70
2016-12-24T05:43:11.857Z,15.60
2016-12-24T05:44:12.913Z,15.60
2016-12-24T05:45:11.572Z,15.60
2016-12-24T05:46:14.080Z,15.60
2016-12-24T05:47:12.656Z,15.60
2016-12-24T05:48:11.891Z,15.60
2016-12-24T05:49:13.417Z,15.60
2016-12-24T05:50:13.271Z,15.60
2016-12-24T05:51:13.146Z,15.60
2016-12-24T05:52:12.250Z,15.60
2016-12-24T05:53:13.181Z,15.70
2016-12-24T05:54:12.531Z,15.70
2016-12-24T05:55:11.806Z,15.60
2016-12-24T05:56:15.036Z,15.60
2016-12-24T05:57:12.324Z,15.60
2016-12-24T05:58:12.660Z,15.60
2016-12-24T05:59:12.400Z,15.60
2016-12-24T06:00:12.584Z,15.60
2016-12-24T06:01:12.278Z,15.60
2016-12-24T06:02:12.010Z,15.60
2016-12-24T06:03:12.410Z,15.60
2016-12-24T06:04:12.293Z,15.60
2016-12-24T06:05:12.255Z,15.60
2016-12-24T06:06:12.602Z,15.60
2016-12-24T06:07:13.520Z,15.60
2016-12-24T06:08:12.579Z,15.60
2016-12-24T06:09:11.918Z,15.60
2016-12-24T06:10:12.557Z,15.70
2016-12-24T06:11:12.458Z,15.70
2016-12-24T06:12:12.809Z,15.60
2016-12-24T06:13:14.921Z,15.70
2016-12-24T06:14:12.128Z,15.60
2016-12-24T06:15:12.048Z,15.70
2016-12-24T06:16:12.192Z,15.60
2016-12-24T06:17:12.285Z,15.70
2016-12-24T06:18:12.170Z,15.60
2016-12-24T06:19:08.839Z,15.60
2016-12-24T06:20:14.376Z,15.60
2016-12-24T06:21:14.570Z,15.60
2016-12-24T06:22:11.990Z,15.60
2016-12-24T06:23:12.330Z,15.60
2016-12-24T06:24:12.250Z,15.60
2016-12-24T06:25:12.477Z,15.60
2016-12-24T06:26:13.461Z,15.60
2016-12-24T06:27:11.955Z,15.60
2016-12-24T06:28:12.156Z,15.60
2016-12-24T06:29:12.386Z,15.60
2016-12-24T06:30:09.713Z,15.60
2016-12-24T06:31:12.638Z,15.60
2016-12-24T06:32:09.323Z,15.60
2016-12-24T06:33:12.503Z,15.60
2016-12-24T06:34:12.681Z,15.60
2016-12-24T06:35:12.007Z,15.60
2016-12-24T06:36:11.482Z,15.60
2016-12-24T06:37:12.455Z,15.60
2016-12-24T06:38:09.170Z,15.60
2016-12-24T06:39:10.710Z,15.60
2016-12-24T06:40:14.937Z,15.60
2016-12-24T06:41:14.968Z,15.60
2016-12-24T06:42:12.983Z,15.60
2016-12-24T06:43:15.024Z,15.60
2016-12-24T06:44:10.903Z,15.60
2016-12-24T06:45:13.592Z,15.60
2016-12-24T06:46:11.894Z,15.60
2016-12-24T06:47:12.708Z,15.60
2016-12-24T06:48:12.144Z,15.70
2016-12-24T06:49:12.678Z,15.70
2016-12-24T06:50:12.065Z,15.80
2016-12-24T06:51:12.068Z,15.70
2016-12-24T06:52:12.784Z,15.80
2016-12-24T06:53:12.092Z,15.80
2016-12-24T06:54:11.470Z,15.90
2016-12-24T06:55:12.531Z,15.90
2016-12-24T06:56:12.454Z,15.90
2016-12-24T06:57:12.448Z,15.90
2016-12-24T06:58:12.647Z,15.90
2016-12-24T06:59:12.719Z,15.90
2016-12-24T07:00:12.104Z,15.90
2016-12-24T07:01:13.059Z,15.90
2016-12-24T07:02:11.905Z,15.90
2016-12-24T07:03:12.922Z,15.90
2016-12-24T07:04:10.671Z,16.00
2016-12-24T07:05:11.408Z,16.00
2016-12-24T07:06:11.736Z,16.00
2016-12-24T07:07:12.384Z,16.00
2016-12-24T07:08:11.779Z,16.00
2016-12-24T07:09:12.197Z,16.00
2016-12-24T07:10:11.661Z,16.00
2016-12-24T07:11:09.466Z,16.00
2016-12-24T07:12:13.187Z,16.00
2016-12-24T07:13:12.014Z,16.00
2016-12-24T07:14:12.398Z,16.00
2016-12-24T07:15:12.349Z,16.00
2016-12-24T07:16:11.829Z,16.00
2016-12-24T07:17:12.342Z,16.00
2016-12-24T07:18:13.199Z,16.00
2016-12-24T07:19:10.557Z,16.00
2016-12-24T07:20:12.198Z,16.00
2016-12-24T07:21:12.072Z,15.90
2016-12-24T07:22:11.538Z,15.90
2016-12-24T07:23:12.825Z,15.90
2016-12-24T07:24:12.218Z,15.90
2016-12-24T07:25:12.081Z,15.90
2016-12-24T07:26:12.222Z,15.80
2016-12-24T07:27:12.248Z,15.80
2016-12-24T07:28:12.207Z,15.80
2016-12-24T07:29:11.752Z,15.80
2016-12-24T07:30:12.382Z,15.80
2016-12-24T07:31:13.408Z,15.80
2016-12-24T07:32:11.788Z,15.80
2016-12-24T07:33:10.035Z,15.50
2016-12-24T07:34:12.902Z,14.70
2016-12-24T07:35:12.530Z,14.00
2016-12-24T07:36:12.554Z,13.50
2016-12-24T07:37:12.439Z,13.10
2016-12-24T07:38:11.763Z,12.70
2016-12-24T07:39:13.009Z,12.40
2016-12-24T07:40:12.645Z,12.10
2016-12-24T07:41:11.889Z,12.00
2016-12-24T07:42:13.937Z,11.70
2016-12-24T07:43:10.429Z,11.70
2016-12-24T07:44:12.419Z,11.50
2016-12-24T07:45:12.657Z,11.50
2016-12-24T07:46:12.142Z,11.50
2016-12-24T07:47:12.103Z,11.80
2016-12-24T07:48:12.067Z,12.10
2016-12-24T07:49:12.096Z,12.50
2016-12-24T07:50:13.057Z,12.80
2016-12-24T07:51:12.660Z,13.20
2016-12-24T07:52:12.670Z,13.50
2016-12-24T07:53:12.671Z,13.80
2016-12-24T07:54:12.063Z,14.00
2016-12-24T07:55:12.104Z,14.20
2016-12-24T07:56:11.592Z,14.40
2016-12-24T07:57:12.937Z,14.50
2016-12-24T07:58:13.304Z,14.60
2016-12-24T07:59:12.123Z,14.70
2016-12-24T08:00:11.529Z,14.80
2016-12-24T08:01:12.538Z,14.90
2016-12-24T08:02:12.537Z,15.00
2016-12-24T08:03:12.048Z,15.10
2016-12-24T08:04:12.046Z,15.20
2016-12-24T08:05:11.578Z,15.30
2016-12-24T08:06:11.950Z,15.30
2016-12-24T08:07:12.863Z,15.40
2016-12-24T08:08:10.322Z,15.50
2016-12-24T08:09:12.664Z,15.50
2016-12-24T08:10:12.202Z,15.60
2016-12-24T08:11:11.894Z,15.60
2016-12-24T08:12:12.714Z,15.70
2016-12-24T08:13:10.682Z,15.70
2016-12-24T08:14:09.598Z,15.70
2016-12-24T08:15:12.046Z,15.80
2016-12-24T08:16:12.086Z,15.80
2016-12-24T08:17:14.285Z,15.80
2016-12-24T08:18:14.206Z,15.90
2016-12-24T08:19:12.163Z,15.90
2016-12-24T08:20:12.541Z,15.90
2016-12-24T08:21:13.346Z,15.90
2016-12-24T08:22:11.724Z,16.00
2016-12-24T08:23:12.214Z,15.90
2016-12-24T08:24:11.758Z,16.00
2016-12-24T08:25:12.818Z,16.00
2016-12-24T08:26:10.823Z,16.00
2016-12-24T08:27:12.545Z,16.10
2016-12-24T08:28:16.557Z,16.10
2016-12-24T08:29:11.823Z,16.10
2016-12-24T08:30:12.598Z,16.10
2016-12-24T08:31:12.537Z,16.10
2016-12-24T08:32:14.297Z,16.20
2016-12-24T08:33:12.610Z,16.20
2016-12-24T08:34:10.739Z,16.20
2016-12-24T08:35:13.020Z,16.20
2016-12-24T08:36:08.942Z,16.20
2016-12-24T08:37:12.650Z,16.20
2016-12-24T08:38:09.636Z,16.20
2016-12-24T08:39:12.372Z,16.20
2016-12-24T08:40:11.787Z,16.20
2016-12-24T08:41:10.614Z,16.30
2016-12-24T08:42:13.840Z,16.30
2016-12-24T08:43:10.074Z,16.30
2016-12-24T08:44:13.455Z,16.30
2016-12-24T08:45:12.426Z,16.30
2016-12-24T08:46:11.726Z,16.30
2016-12-24T08:47:14.242Z,16.30
2016-12-24T08:48:11.786Z,16.30
2016-12-24T08:49:12.056Z,16.30
2016-12-24T08:50:12.798Z,16.30
2016-12-24T08:51:12.218Z,16.30
2016-12-24T08:52:11.706Z,16.30
2016-12-24T08:53:12.160Z,16.30
2016-12-24T08:54:12.193Z,16.30
2016-12-24T08:55:11.608Z,16.30
2016-12-24T08:56:12.101Z,16.30
2016-12-24T08:57:12.235Z,16.30
2016-12-24T08:58:12.247Z,16.30
2016-12-24T08:59:11.768Z,16.30
2016-12-24T09:00:12.109Z,16.30
2016-12-24T09:01:12.325Z,16.30
2016-12-24T09:02:09.584Z,16.30
2016-12-24T09:03:12.071Z,16.30
2016-12-24T09:04:11.572Z,16.30
2016-12-24T09:05:12.393Z,16.30
2016-12-24T09:06:10.491Z,16.30
2016-12-24T09:07:12.807Z,16.30
2016-12-24T09:08:10.816Z,16.30
2016-12-24T09:09:11.373Z,16.30
2016-12-24T09:10:12.549Z,16.30
2016-12-24T09:11:12.332Z,16.30
2016-12-24T09:12:13.350Z,16.30
2016-12-24T09:13:13.430Z,16.30
2016-12-24T09:14:12.528Z,16.30
2016-12-24T09:15:12.436Z,16.30
2016-12-24T09:16:12.698Z,16.30
2016-12-24T09:17:12.096Z,16.30
2016-12-24T09:18:12.946Z,16.30
2016-12-24T09:19:12.377Z,16.30
2016-12-24T09:20:13.461Z,16.30
2016-12-24T09:21:12.185Z,16.30
2016-12-24T09:22:12.266Z,16.30
2016-12-24T09:23:12.413Z,16.30
2016-12-24T09:24:12.319Z,16.30
2016-12-24T09:25:11.884Z,16.30
2016-12-24T09:26:12.647Z,16.30
2016-12-24T09:27:11.936Z,16.30
2016-12-24T09:28:13.953Z,16.30
2016-12-24T09:29:12.751Z,16.30
2016-12-24T09:30:12.566Z,16.30
2016-12-24T09:31:11.869Z,16.40
2016-12-24T09:32:11.355Z,16.40
2016-12-24T09:33:11.565Z,16.30
2016-12-24T09:34:13.547Z,16.40
2016-12-24T09:35:12.310Z,16.40
2016-12-24T09:36:13.298Z,16.40
2016-12-24T09:37:13.296Z,16.40
2016-12-24T09:38:12.866Z,16.40
2016-12-24T09:40:09.386Z,16.40
2016-12-24T09:41:12.263Z,16.40
2016-12-24T09:42:11.714Z,16.40
2016-12-24T09:43:09.145Z,16.40
2016-12-24T09:44:11.597Z,16.40
2016-12-24T09:45:12.518Z,16.40
2016-12-24T09:46:12.565Z,16.40
2016-12-24T09:47:12.297Z,16.40
2016-12-24T09:48:11.768Z,16.40
2016-12-24T09:49:12.076Z,16.40
2016-12-24T09:50:12.014Z,16.40
2016-12-24T09:51:12.337Z,16.50
2016-12-24T09:52:10.333Z,16.50
2016-12-24T09:53:13.500Z,16.50
2016-12-24T09:54:11.914Z,16.40
2016-12-24T09:55:12.327Z,16.40
2016-12-24T09:56:12.365Z,16.40
2016-12-24T09:57:12.453Z,16.40
2016-12-24T09:58:11.875Z,16.40
2016-12-24T09:59:10.027Z,16.40
2016-12-24T10:00:12.190Z,16.40
2016-12-24T10:01:13.019Z,16.40
2016-12-24T10:02:11.941Z,16.40
2016-12-24T10:03:12.427Z,16.30
2016-12-24T10:04:12.463Z,16.30
2016-12-24T10:05:12.651Z,16.40
2016-12-24T10:06:12.130Z,16.40
2016-12-24T10:07:11.668Z,16.40
2016-12-24T10:08:13.515Z,16.40
2016-12-24T10:09:13.419Z,16.40
2016-12-24T10:10:11.789Z,16.40
2016-12-24T10:11:12.207Z,16.40
2016-12-24T10:12:13.588Z,16.40
2016-12-24T10:13:12.255Z,16.40
2016-12-24T10:14:10.284Z,16.40
2016-12-24T10:15:11.932Z,16.40
2016-12-24T10:16:11.998Z,16.40
2016-12-24T10:17:12.854Z,16.40
2016-12-24T10:18:12.790Z,16.40
2016-12-24T10:19:12.587Z,16.40
2016-12-24T10:20:12.027Z,16.30
2016-12-24T10:21:12.775Z,16.40
2016-12-24T10:22:12.645Z,16.40
2016-12-24T10:23:12.519Z,16.40
2016-12-24T10:24:12.409Z,16.40
2016-12-24T10:25:11.852Z,16.30
2016-12-24T10:26:12.925Z,16.30
2016-12-24T10:27:12.340Z,16.40
2016-12-24T10:28:12.504Z,16.40
2016-12-24T10:29:12.352Z,16.40
2016-12-24T10:30:14.027Z,16.40
2016-12-24T10:31:12.006Z,16.30
2016-12-24T10:32:12.335Z,16.40
2016-12-24T10:33:12.332Z,16.40
2016-12-24T10:34:11.939Z,16.40
2016-12-24T10:35:12.110Z,16.40
2016-12-24T10:36:09.121Z,16.40
2016-12-24T10:37:09.813Z,16.40
2016-12-24T10:38:12.199Z,16.40
2016-12-24T10:39:11.666Z,16.40
2016-12-24T10:40:11.968Z,16.40
2016-12-24T10:41:12.914Z,16.40
2016-12-24T10:42:13.029Z,16.30
2016-12-24T10:43:09.418Z,16.40
2016-12-24T10:44:13.940Z,16.40
2016-12-24T10:45:12.290Z,16.40
2016-12-24T10:46:12.197Z,16.30
2016-12-24T10:47:12.497Z,16.40
2016-12-24T10:48:11.869Z,16.40
2016-12-24T10:49:14.166Z,16.40
2016-12-24T10:50:12.860Z,16.40
2016-12-24T10:51:13.644Z,16.40
2016-12-24T10:52:13.531Z,16.40
2016-12-24T10:53:12.452Z,16.40
2016-12-24T10:54:12.400Z,16.40
2016-12-24T10:55:12.227Z,16.40
2016-12-24T10:56:11.858Z,16.40
2016-12-24T10:57:12.007Z,16.40
2016-12-24T10:58:12.096Z,16.40
2016-12-24T10:59:12.122Z,16.40
2016-12-24T11:00:12.206Z,16.40
2016-12-24T11:01:12.079Z,16.40
2016-12-24T11:02:11.905Z,16.40
2016-12-24T11:03:12.265Z,16.40
2016-12-24T11:04:12.232Z,16.40
2016-12-24T11:05:12.058Z,16.40
2016-12-24T11:06:11.497Z,16.40
2016-12-24T11:07:12.398Z,16.40
2016-12-24T11:08:12.415Z,16.40
2016-12-24T11:09:11.954Z,16.40
2016-12-24T11:10:12.390Z,16.40
2016-12-24T11:11:12.572Z,16.40
2016-12-24T11:12:12.551Z,16.40
2016-12-24T11:13:11.960Z,16.40
2016-12-24T11:14:12.404Z,16.30
2016-12-24T11:15:12.402Z,16.40
2016-12-24T11:16:11.699Z,16.40
2016-12-24T11:17:13.304Z,16.40
2016-12-24T11:18:14.312Z,16.40
2016-12-24T11:19:11.827Z,16.40
2016-12-24T11:20:12.125Z,16.40
2016-12-24T11:21:13.292Z,16.40
2016-12-24T11:22:10.207Z,16.40
2016-12-24T11:23:13.293Z,16.40
2016-12-24T11:24:11.674Z,16.40
2016-12-24T11:25:13.810Z,16.40
2016-12-24T11:26:12.949Z,16.40
2016-12-24T11:27:13.678Z,16.40
2016-12-24T11:28:12.100Z,16.40
2016-12-24T11:29:12.188Z,16.40
2016-12-24T11:30:12.065Z,16.40
2016-12-24T11:31:11.623Z,16.40
2016-12-24T11:32:13.716Z,16.30
2016-12-24T11:33:12.636Z,16.40
2016-12-24T11:34:11.968Z,16.40
2016-12-24T11:35:12.785Z,16.40
2016-12-24T11:36:12.186Z,16.40
2016-12-24T11:37:13.203Z,16.40
2016-12-24T11:38:11.610Z,16.40
2016-12-24T11:39:12.526Z,16.40
2016-12-24T11:40:12.768Z,16.40
2016-12-24T11:41:12.194Z,16.40
2016-12-24T11:42:12.056Z,16.40
2016-12-24T11:43:13.085Z,16.40
2016-12-24T11:44:11.555Z,16.40
2016-12-24T11:45:12.286Z,16.40
2016-12-24T11:46:11.670Z,16.40
2016-12-24T11:47:12.222Z,16.40
2016-12-24T11:48:12.056Z,16.40
2016-12-24T11:49:11.557Z,16.40
2016-12-24T11:50:12.299Z,16.40
2016-12-24T11:51:15.525Z,16.40
2016-12-24T11:52:12.747Z,16.40
2016-12-24T11:53:12.815Z,16.40
2016-12-24T11:54:12.140Z,16.40
2016-12-24T11:55:12.156Z,16.40
2016-12-24T11:56:11.649Z,16.40
2016-12-24T11:57:12.285Z,16.40
2016-12-24T11:58:11.537Z,16.40
2016-12-24T11:59:11.832Z,16.40
2016-12-24T12:00:12.125Z,16.40
2016-12-24T12:01:12.130Z,16.40
2016-12-24T12:02:11.634Z,16.40
2016-12-24T12:03:12.486Z,16.40
2016-12-24T12:04:11.820Z,16.40
2016-12-24T12:05:12.611Z,16.40
2016-12-24T12:06:11.975Z,16.40
2016-12-24T12:07:12.757Z,16.40
2016-12-24T12:08:12.953Z,16.40
2016-12-24T12:09:12.309Z,16.40
2016-12-24T12:10:13.447Z,16.40
2016-12-24T12:11:12.681Z,16.40
2016-12-24T12:12:09.464Z,16.40
2016-12-24T12:13:12.382Z,16.40
2016-12-24T12:14:11.654Z,16.40
2016-12-24T12:15:12.378Z,16.40
2016-12-24T12:16:11.834Z,16.40
2016-12-24T12:17:10.734Z,16.40
2016-12-24T12:18:11.551Z,16.40
2016-12-24T12:19:12.064Z,16.40
2016-12-24T12:20:13.033Z,16.40
2016-12-24T12:21:14.055Z,16.40
2016-12-24T12:22:11.699Z,16.40
2016-12-24T12:23:12.219Z,16.50
2016-12-24T12:24:12.164Z,16.50
2016-12-24T12:25:12.159Z,16.40
2016-12-24T12:26:11.942Z,16.50
2016-12-24T12:27:12.792Z,16.50
2016-12-24T12:28:12.845Z,16.40
2016-12-24T12:29:12.753Z,16.50
2016-12-24T12:30:12.759Z,16.50
2016-12-24T12:31:12.610Z,16.50
2016-12-24T12:32:12.135Z,16.40
2016-12-24T12:33:11.577Z,16.40
2016-12-24T12:34:11.993Z,16.40
2016-12-24T12:35:12.275Z,16.40
2016-12-24T12:36:12.713Z,16.50
2016-12-24T12:37:12.534Z,16.40
2016-12-24T12:38:13.258Z,16.50
2016-12-24T12:39:11.901Z,16.40
2016-12-24T12:40:12.259Z,16.50
2016-12-24T12:41:12.567Z,16.40
2016-12-24T12:42:12.177Z,16.40
2016-12-24T12:43:11.921Z,16.40
2016-12-24T12:44:12.921Z,16.50
2016-12-24T12:45:13.845Z,16.50
2016-12-24T12:46:12.906Z,16.50
2016-12-24T12:47:15.005Z,16.50
2016-12-24T12:48:11.637Z,16.50
2016-12-24T12:49:11.903Z,16.50
2016-12-24T12:50:13.953Z,16.50
2016-12-24T12:51:12.702Z,16.50
2016-12-24T12:52:10.768Z,16.50
2016-12-24T12:53:12.768Z,16.50